sensor_id;sensor_type;location;lat;lon;timestamp;P1;durP1;ratioP1;P2;durP2;ratioP2
19617;SDS011;9956;51.006;13.670;2023-04-03T00:03:08;5.00;;;1.70;;
19617;SDS011;9956;51.006;13.670;2023-04-03T00:08:09;3.15;;;1.70;;
19617;SDS011;9956;51.006;13.670;2023-04-03T00:13:09;2.15;;;1.33;;
19617;SDS011;9956;51.006;13.670;2023-04-03T00:18:11;5.60;;;1.77;;
19617;SDS011;9956;51.006;13.670;2023-04-03T00:23:11;4.13;;;1.85;;
19617;SDS011;9956;51.006;13.670;2023-04-03T00:28:12;3.53;;;2.17;;
19617;SDS011;9956;51.006;13.670;2023-04-03T00:33:12;4.53;;;1.55;;
19617;SDS011;9956;51.006;13.670;2023-04-03T00:38:14;5.60;;;1.73;;
19617;SDS011;9956;51.006;13.670;2023-04-03T00:43:23;7.97;;;2.08;;
19617;SDS011;9956;51.006;13.670;2023-04-03T00:48:32;3.88;;;1.63;;
19617;SDS011;9956;51.006;13.670;2023-04-03T00:53:40;2.63;;;1.58;;
19617;SDS011;9956;51.006;13.670;2023-04-03T00:59:12;5.78;;;1.77;;
19617;SDS011;9956;51.006;13.670;2023-04-03T01:04:41;2.88;;;1.40;;
19617;SDS011;9956;51.006;13.670;2023-04-03T01:09:43;4.03;;;1.90;;
19617;SDS011;9956;51.006;13.670;2023-04-03T01:14:45;3.00;;;1.70;;
19617;SDS011;9956;51.006;13.670;2023-04-03T01:19:48;3.75;;;1.85;;
19617;SDS011;9956;51.006;13.670;2023-04-03T01:24:52;4.07;;;1.90;;
19617;SDS011;9956;51.006;13.670;2023-04-03T01:29:54;2.67;;;1.90;;
19617;SDS011;9956;51.006;13.670;2023-04-03T01:34:54;4.40;;;1.60;;
19617;SDS011;9956;51.006;13.670;2023-04-03T01:39:55;2.97;;;1.80;;
19617;SDS011;9956;51.006;13.670;2023-04-03T01:44:56;5.13;;;1.67;;
19617;SDS011;9956;51.006;13.670;2023-04-03T01:49:56;2.88;;;1.27;;
19617;SDS011;9956;51.006;13.670;2023-04-03T01:54:57;2.33;;;1.55;;
19617;SDS011;9956;51.006;13.670;2023-04-03T01:59:58;2.78;;;1.48;;
19617;SDS011;9956;51.006;13.670;2023-04-03T02:04:59;4.55;;;2.00;;
19617;SDS011;9956;51.006;13.670;2023-04-03T02:09:59;3.60;;;1.92;;
19617;SDS011;9956;51.006;13.670;2023-04-03T02:15:00;5.82;;;2.40;;
19617;SDS011;9956;51.006;13.670;2023-04-03T02:20:01;3.90;;;1.88;;
19617;SDS011;9956;51.006;13.670;2023-04-03T02:25:03;4.22;;;1.60;;
19617;SDS011;9956;51.006;13.670;2023-04-03T02:30:05;3.45;;;1.50;;
19617;SDS011;9956;51.006;13.670;2023-04-03T02:35:06;2.92;;;1.70;;
19617;SDS011;9956;51.006;13.670;2023-04-03T02:40:07;3.47;;;1.67;;
19617;SDS011;9956;51.006;13.670;2023-04-03T02:45:10;3.58;;;1.90;;
19617;SDS011;9956;51.006;13.670;2023-04-03T02:50:10;3.60;;;1.80;;
19617;SDS011;9956;51.006;13.670;2023-04-03T02:55:13;3.95;;;2.03;;
19617;SDS011;9956;51.006;13.670;2023-04-03T03:00:15;5.60;;;2.00;;
19617;SDS011;9956;51.006;13.670;2023-04-03T03:05:16;1.60;;;1.20;;
19617;SDS011;9956;51.006;13.670;2023-04-03T03:10:17;3.40;;;1.63;;
19617;SDS011;9956;51.006;13.670;2023-04-03T03:15:19;4.57;;;1.92;;
19617;SDS011;9956;51.006;13.670;2023-04-03T03:20:20;4.00;;;1.58;;
19617;SDS011;9956;51.006;13.670;2023-04-03T03:25:21;2.22;;;1.70;;
19617;SDS011;9956;51.006;13.670;2023-04-03T03:30:22;4.15;;;1.77;;
19617;SDS011;9956;51.006;13.670;2023-04-03T03:35:23;4.15;;;1.90;;
19617;SDS011;9956;51.006;13.670;2023-04-03T03:40:23;3.88;;;1.85;;
19617;SDS011;9956;51.006;13.670;2023-04-03T03:45:24;4.70;;;2.13;;
19617;SDS011;9956;51.006;13.670;2023-04-03T03:50:25;4.13;;;1.95;;
19617;SDS011;9956;51.006;13.670;2023-04-03T03:55:25;5.07;;;1.60;;
19617;SDS011;9956;51.006;13.670;2023-04-03T04:00:28;5.60;;;2.10;;
19617;SDS011;9956;51.006;13.670;2023-04-03T04:05:31;4.32;;;1.83;;
19617;SDS011;9956;51.006;13.670;2023-04-03T04:10:33;4.68;;;2.13;;
19617;SDS011;9956;51.006;13.670;2023-04-03T04:15:35;4.72;;;2.00;;
19617;SDS011;9956;51.006;13.670;2023-04-03T04:20:36;4.75;;;1.92;;
19617;SDS011;9956;51.006;13.670;2023-04-03T04:25:36;3.40;;;1.70;;
19617;SDS011;9956;51.006;13.670;2023-04-03T04:30:39;4.05;;;1.80;;
19617;SDS011;9956;51.006;13.670;2023-04-03T04:35:41;4.22;;;2.33;;
19617;SDS011;9956;51.006;13.670;2023-04-03T04:40:43;7.85;;;2.25;;
19617;SDS011;9956;51.006;13.670;2023-04-03T04:45:46;6.88;;;2.15;;
19617;SDS011;9956;51.006;13.670;2023-04-03T04:50:47;4.05;;;1.80;;
19617;SDS011;9956;51.006;13.670;2023-04-03T04:55:48;4.07;;;2.08;;
19617;SDS011;9956;51.006;13.670;2023-04-03T05:00:49;5.63;;;2.53;;
19617;SDS011;9956;51.006;13.670;2023-04-03T05:05:50;3.28;;;1.85;;
19617;SDS011;9956;51.006;13.670;2023-04-03T05:10:51;7.93;;;2.28;;
19617;SDS011;9956;51.006;13.670;2023-04-03T05:15:53;6.10;;;2.40;;
19617;SDS011;9956;51.006;13.670;2023-04-03T05:20:54;3.45;;;1.90;;
19617;SDS011;9956;51.006;13.670;2023-04-03T05:25:58;6.90;;;2.50;;
19617;SDS011;9956;51.006;13.670;2023-04-03T05:30:59;3.67;;;2.15;;
19617;SDS011;9956;51.006;13.670;2023-04-03T05:36:05;4.50;;;2.45;;
19617;SDS011;9956;51.006;13.670;2023-04-03T05:41:10;5.72;;;2.58;;
19617;SDS011;9956;51.006;13.670;2023-04-03T05:46:11;3.67;;;2.33;;
19617;SDS011;9956;51.006;13.670;2023-04-03T05:51:19;7.78;;;2.85;;
19617;SDS011;9956;51.006;13.670;2023-04-03T05:56:27;8.32;;;3.05;;
19617;SDS011;9956;51.006;13.670;2023-04-03T06:01:28;5.88;;;3.25;;
19617;SDS011;9956;51.006;13.670;2023-04-03T06:06:50;5.82;;;2.50;;
19617;SDS011;9956;51.006;13.670;2023-04-03T06:11:55;4.85;;;2.55;;
19617;SDS011;9956;51.006;13.670;2023-04-03T06:16:58;5.25;;;2.05;;
19617;SDS011;9956;51.006;13.670;2023-04-03T06:21:59;4.90;;;2.40;;
19617;SDS011;9956;51.006;13.670;2023-04-03T06:27:00;4.18;;;2.22;;
19617;SDS011;9956;51.006;13.670;2023-04-03T06:32:00;19.98;;;3.67;;
19617;SDS011;9956;51.006;13.670;2023-04-03T06:37:01;7.07;;;3.28;;
19617;SDS011;9956;51.006;13.670;2023-04-03T06:42:02;9.63;;;3.78;;
19617;SDS011;9956;51.006;13.670;2023-04-03T06:47:11;5.22;;;2.42;;
19617;SDS011;9956;51.006;13.670;2023-04-03T06:52:13;5.50;;;2.63;;
19617;SDS011;9956;51.006;13.670;2023-04-03T06:57:14;6.03;;;3.22;;
19617;SDS011;9956;51.006;13.670;2023-04-03T07:02:15;10.52;;;4.43;;
19617;SDS011;9956;51.006;13.670;2023-04-03T07:07:15;6.47;;;2.50;;
19617;SDS011;9956;51.006;13.670;2023-04-03T07:12:17;7.72;;;3.15;;
19617;SDS011;9956;51.006;13.670;2023-04-03T07:17:18;8.52;;;2.92;;
19617;SDS011;9956;51.006;13.670;2023-04-03T07:22:18;5.00;;;2.80;;
19617;SDS011;9956;51.006;13.670;2023-04-03T07:27:18;6.75;;;3.30;;
19617;SDS011;9956;51.006;13.670;2023-04-03T07:32:19;6.75;;;2.40;;
19617;SDS011;9956;51.006;13.670;2023-04-03T07:37:20;7.43;;;2.97;;
19617;SDS011;9956;51.006;13.670;2023-04-03T07:42:20;6.18;;;2.65;;
19617;SDS011;9956;51.006;13.670;2023-04-03T07:47:21;6.38;;;2.22;;
19617;SDS011;9956;51.006;13.670;2023-04-03T07:52:22;5.32;;;2.45;;
19617;SDS011;9956;51.006;13.670;2023-04-03T07:57:22;5.75;;;2.63;;
19617;SDS011;9956;51.006;13.670;2023-04-03T08:02:23;6.22;;;2.15;;
19617;SDS011;9956;51.006;13.670;2023-04-03T08:07:23;6.38;;;3.03;;
19617;SDS011;9956;51.006;13.670;2023-04-03T08:12:24;7.05;;;2.45;;
19617;SDS011;9956;51.006;13.670;2023-04-03T08:17:25;6.70;;;2.38;;
19617;SDS011;9956;51.006;13.670;2023-04-03T08:22:26;4.70;;;2.10;;
19617;SDS011;9956;51.006;13.670;2023-04-03T08:27:26;4.32;;;2.42;;
19617;SDS011;9956;51.006;13.670;2023-04-03T08:32:27;6.38;;;3.08;;
19617;SDS011;9956;51.006;13.670;2023-04-03T08:37:28;5.00;;;2.92;;
19617;SDS011;9956;51.006;13.670;2023-04-03T08:43:32;8.20;;;3.20;;
19617;SDS011;9956;51.006;13.670;2023-04-03T08:48:05;7.43;;;2.42;;
19617;SDS011;9956;51.006;13.670;2023-04-03T08:53:41;6.95;;;2.15;;
19617;SDS011;9956;51.006;13.670;2023-04-03T08:59:10;6.82;;;3.17;;
19617;SDS011;9956;51.006;13.670;2023-04-03T09:04:11;7.53;;;3.42;;
19617;SDS011;9956;51.006;13.670;2023-04-03T09:14:30;4.97;;;2.47;;
19617;SDS011;9956;51.006;13.670;2023-04-03T09:19:38;4.93;;;2.50;;
19617;SDS011;9956;51.006;13.670;2023-04-03T09:24:43;7.25;;;2.53;;
19617;SDS011;9956;51.006;13.670;2023-04-03T09:29:46;4.22;;;1.90;;
19617;SDS011;9956;51.006;13.670;2023-04-03T09:34:46;8.50;;;1.95;;
19617;SDS011;9956;51.006;13.670;2023-04-03T09:39:52;4.15;;;2.00;;
19617;SDS011;9956;51.006;13.670;2023-04-03T09:44:58;3.72;;;1.40;;
19617;SDS011;9956;51.006;13.670;2023-04-03T09:55:22;3.65;;;1.80;;
19617;SDS011;9956;51.006;13.670;2023-04-03T10:00:53;5.28;;;1.80;;
19617;SDS011;9956;51.006;13.670;2023-04-03T10:05:55;4.30;;;1.88;;
19617;SDS011;9956;51.006;13.670;2023-04-03T10:11:16;3.10;;;1.42;;
19617;SDS011;9956;51.006;13.670;2023-04-03T10:16:23;4.60;;;2.05;;
19617;SDS011;9956;51.006;13.670;2023-04-03T10:26:49;3.63;;;1.27;;
19617;SDS011;9956;51.006;13.670;2023-04-03T10:37:27;5.32;;;1.88;;
19617;SDS011;9956;51.006;13.670;2023-04-03T10:48:11;6.35;;;2.60;;
19617;SDS011;9956;51.006;13.670;2023-04-03T10:53:37;7.75;;;7.07;;
19617;SDS011;9956;51.006;13.670;2023-04-03T10:58:44;3.00;;;2.70;;
19617;SDS011;9956;51.006;13.670;2023-04-03T11:03:53;3.35;;;1.50;;
19617;SDS011;9956;51.006;13.670;2023-04-03T11:09:00;2.90;;;1.50;;
19617;SDS011;9956;51.006;13.670;2023-04-03T11:24:25;3.45;;;1.10;;
19617;SDS011;9956;51.006;13.670;2023-04-03T11:29:34;2.83;;;1.20;;
19617;SDS011;9956;51.006;13.670;2023-04-03T11:34:40;3.70;;;1.33;;
19617;SDS011;9956;51.006;13.670;2023-04-03T11:39:47;4.57;;;1.00;;
19617;SDS011;9956;51.006;13.670;2023-04-03T12:00:58;6.10;;;4.65;;
19617;SDS011;9956;51.006;13.670;2023-04-03T12:26:50;5.80;;;3.03;;
19617;SDS011;9956;51.006;13.670;2023-04-03T12:43:22;2.40;;;1.48;;
19617;SDS011;9956;51.006;13.670;2023-04-03T12:53:45;3.80;;;1.42;;
19617;SDS011;9956;51.006;13.670;2023-04-03T12:58:46;3.83;;;1.42;;
19617;SDS011;9956;51.006;13.670;2023-04-03T13:03:48;6.07;;;1.55;;
19617;SDS011;9956;51.006;13.670;2023-04-03T13:14:33;1.88;;;1.02;;
19617;SDS011;9956;51.006;13.670;2023-04-03T13:19:20;3.22;;;1.80;;
19617;SDS011;9956;51.006;13.670;2023-04-03T13:24:23;4.82;;;1.27;;
19617;SDS011;9956;51.006;13.670;2023-04-03T13:29:28;1.77;;;1.10;;
19617;SDS011;9956;51.006;13.670;2023-04-03T13:34:36;2.13;;;1.10;;
19617;SDS011;9956;51.006;13.670;2023-04-03T13:39:38;2.03;;;1.05;;
19617;SDS011;9956;51.006;13.670;2023-04-03T13:55:31;6.47;;;4.30;;
19617;SDS011;9956;51.006;13.670;2023-04-03T14:00:35;6.85;;;5.32;;
19617;SDS011;9956;51.006;13.670;2023-04-03T14:05:51;3.83;;;2.55;;
19617;SDS011;9956;51.006;13.670;2023-04-03T14:10:51;3.88;;;2.10;;
19617;SDS011;9956;51.006;13.670;2023-04-03T14:15:55;2.40;;;1.85;;
19617;SDS011;9956;51.006;13.670;2023-04-03T14:20:55;4.88;;;2.30;;
19617;SDS011;9956;51.006;13.670;2023-04-03T14:25:56;3.75;;;1.80;;
19617;SDS011;9956;51.006;13.670;2023-04-03T14:30:56;5.07;;;1.95;;
19617;SDS011;9956;51.006;13.670;2023-04-03T14:35:57;4.38;;;1.67;;
19617;SDS011;9956;51.006;13.670;2023-04-03T14:40:58;4.25;;;2.58;;
19617;SDS011;9956;51.006;13.670;2023-04-03T14:45:59;3.78;;;1.70;;
19617;SDS011;9956;51.006;13.670;2023-04-03T14:50:59;4.13;;;2.63;;
19617;SDS011;9956;51.006;13.670;2023-04-03T14:56:00;5.10;;;1.80;;
19617;SDS011;9956;51.006;13.670;2023-04-03T15:01:00;7.00;;;3.92;;
19617;SDS011;9956;51.006;13.670;2023-04-03T15:06:01;8.63;;;4.13;;
19617;SDS011;9956;51.006;13.670;2023-04-03T15:11:01;5.22;;;2.75;;
19617;SDS011;9956;51.006;13.670;2023-04-03T15:16:02;2.40;;;1.88;;
19617;SDS011;9956;51.006;13.670;2023-04-03T15:21:04;3.38;;;1.95;;
19617;SDS011;9956;51.006;13.670;2023-04-03T15:26:05;2.22;;;1.90;;
19617;SDS011;9956;51.006;13.670;2023-04-03T15:31:05;3.60;;;1.52;;
19617;SDS011;9956;51.006;13.670;2023-04-03T15:36:06;5.50;;;2.13;;
19617;SDS011;9956;51.006;13.670;2023-04-03T15:41:07;2.80;;;1.70;;
19617;SDS011;9956;51.006;13.670;2023-04-03T15:46:07;2.70;;;1.52;;
19617;SDS011;9956;51.006;13.670;2023-04-03T15:51:08;5.55;;;3.35;;
19617;SDS011;9956;51.006;13.670;2023-04-03T15:56:08;8.93;;;6.00;;
19617;SDS011;9956;51.006;13.670;2023-04-03T16:01:09;5.63;;;3.97;;
19617;SDS011;9956;51.006;13.670;2023-04-03T16:06:12;23.58;;;14.20;;
19617;SDS011;9956;51.006;13.670;2023-04-03T16:11:13;9.68;;;5.88;;
19617;SDS011;9956;51.006;13.670;2023-04-03T16:16:13;14.23;;;9.10;;
19617;SDS011;9956;51.006;13.670;2023-04-03T16:21:14;5.60;;;4.05;;
19617;SDS011;9956;51.006;13.670;2023-04-03T16:26:15;5.18;;;2.90;;
19617;SDS011;9956;51.006;13.670;2023-04-03T16:31:17;5.22;;;3.88;;
19617;SDS011;9956;51.006;13.670;2023-04-03T16:36:17;4.25;;;2.40;;
19617;SDS011;9956;51.006;13.670;2023-04-03T16:41:18;3.00;;;1.85;;
19617;SDS011;9956;51.006;13.670;2023-04-03T16:46:18;5.50;;;2.47;;
19617;SDS011;9956;51.006;13.670;2023-04-03T16:51:19;21.35;;;13.10;;
19617;SDS011;9956;51.006;13.670;2023-04-03T16:56:19;5.53;;;3.70;;
19617;SDS011;9956;51.006;13.670;2023-04-03T17:01:21;9.13;;;5.82;;
19617;SDS011;9956;51.006;13.670;2023-04-03T17:06:22;2.65;;;1.55;;
19617;SDS011;9956;51.006;13.670;2023-04-03T17:11:23;5.70;;;1.95;;
19617;SDS011;9956;51.006;13.670;2023-04-03T17:16:24;2.58;;;2.03;;
19617;SDS011;9956;51.006;13.670;2023-04-03T17:21:25;2.13;;;1.60;;
19617;SDS011;9956;51.006;13.670;2023-04-03T17:26:26;6.68;;;2.40;;
19617;SDS011;9956;51.006;13.670;2023-04-03T17:31:26;7.53;;;3.63;;
19617;SDS011;9956;51.006;13.670;2023-04-03T17:36:28;11.77;;;5.93;;
19617;SDS011;9956;51.006;13.670;2023-04-03T17:41:29;3.17;;;1.77;;
19617;SDS011;9956;51.006;13.670;2023-04-03T17:46:29;3.97;;;3.17;;
19617;SDS011;9956;51.006;13.670;2023-04-03T17:51:31;2.40;;;2.13;;
19617;SDS011;9956;51.006;13.670;2023-04-03T17:56:34;3.58;;;2.45;;
19617;SDS011;9956;51.006;13.670;2023-04-03T18:01:35;4.45;;;3.22;;
19617;SDS011;9956;51.006;13.670;2023-04-03T18:06:37;4.57;;;3.08;;
19617;SDS011;9956;51.006;13.670;2023-04-03T18:11:39;5.20;;;3.28;;
19617;SDS011;9956;51.006;13.670;2023-04-03T18:16:40;5.90;;;3.72;;
19617;SDS011;9956;51.006;13.670;2023-04-03T18:21:41;4.38;;;2.67;;
19617;SDS011;9956;51.006;13.670;2023-04-03T18:26:42;5.90;;;2.30;;
19617;SDS011;9956;51.006;13.670;2023-04-03T18:31:45;3.72;;;1.98;;
19617;SDS011;9956;51.006;13.670;2023-04-03T18:36:47;4.35;;;2.55;;
19617;SDS011;9956;51.006;13.670;2023-04-03T18:41:48;6.97;;;3.50;;
19617;SDS011;9956;51.006;13.670;2023-04-03T18:46:49;3.55;;;2.42;;
19617;SDS011;9956;51.006;13.670;2023-04-03T18:51:50;5.53;;;2.97;;
19617;SDS011;9956;51.006;13.670;2023-04-03T18:56:51;13.20;;;7.60;;
19617;SDS011;9956;51.006;13.670;2023-04-03T19:01:52;12.20;;;7.63;;
19617;SDS011;9956;51.006;13.670;2023-04-03T19:06:53;7.30;;;4.88;;
19617;SDS011;9956;51.006;13.670;2023-04-03T19:11:53;6.10;;;3.70;;
19617;SDS011;9956;51.006;13.670;2023-04-03T19:16:54;5.65;;;3.22;;
19617;SDS011;9956;51.006;13.670;2023-04-03T19:21:55;7.53;;;3.42;;
19617;SDS011;9956;51.006;13.670;2023-04-03T19:26:55;6.47;;;3.78;;
19617;SDS011;9956;51.006;13.670;2023-04-03T19:31:56;11.88;;;5.53;;
19617;SDS011;9956;51.006;13.670;2023-04-03T19:36:56;10.70;;;6.78;;
19617;SDS011;9956;51.006;13.670;2023-04-03T19:41:57;9.57;;;6.03;;
19617;SDS011;9956;51.006;13.670;2023-04-03T19:46:58;12.05;;;6.82;;
19617;SDS011;9956;51.006;13.670;2023-04-03T19:51:59;9.93;;;7.32;;
19617;SDS011;9956;51.006;13.670;2023-04-03T19:57:00;10.32;;;6.55;;
19617;SDS011;9956;51.006;13.670;2023-04-03T20:02:01;11.60;;;7.68;;
19617;SDS011;9956;51.006;13.670;2023-04-03T20:07:01;13.85;;;10.23;;
19617;SDS011;9956;51.006;13.670;2023-04-03T20:12:02;11.57;;;9.52;;
19617;SDS011;9956;51.006;13.670;2023-04-03T20:17:02;9.23;;;6.28;;
19617;SDS011;9956;51.006;13.670;2023-04-03T20:22:03;11.38;;;7.40;;
19617;SDS011;9956;51.006;13.670;2023-04-03T20:27:04;11.38;;;8.32;;
19617;SDS011;9956;51.006;13.670;2023-04-03T20:32:04;10.73;;;7.53;;
19617;SDS011;9956;51.006;13.670;2023-04-03T20:37:07;10.25;;;6.28;;
19617;SDS011;9956;51.006;13.670;2023-04-03T20:42:08;10.45;;;7.38;;
19617;SDS011;9956;51.006;13.670;2023-04-03T20:47:10;4.68;;;3.53;;
19617;SDS011;9956;51.006;13.670;2023-04-03T20:52:12;4.38;;;2.83;;
19617;SDS011;9956;51.006;13.670;2023-04-03T20:57:12;4.07;;;2.28;;
19617;SDS011;9956;51.006;13.670;2023-04-03T21:02:13;5.22;;;2.53;;
19617;SDS011;9956;51.006;13.670;2023-04-03T21:24:03;2.97;;;2.08;;
19617;SDS011;9956;51.006;13.670;2023-04-03T21:29:06;4.22;;;2.35;;
19617;SDS011;9956;51.006;13.670;2023-04-03T21:34:06;2.70;;;2.40;;
19617;SDS011;9956;51.006;13.670;2023-04-03T21:39:07;2.60;;;2.25;;
19617;SDS011;9956;51.006;13.670;2023-04-03T21:44:07;4.63;;;2.60;;
19617;SDS011;9956;51.006;13.670;2023-04-03T21:49:08;3.55;;;2.63;;
19617;SDS011;9956;51.006;13.670;2023-04-03T21:54:09;4.68;;;2.55;;
19617;SDS011;9956;51.006;13.670;2023-04-03T21:59:09;3.75;;;2.67;;
19617;SDS011;9956;51.006;13.670;2023-04-03T22:04:10;4.97;;;2.88;;
19617;SDS011;9956;51.006;13.670;2023-04-03T22:09:10;7.07;;;3.28;;
19617;SDS011;9956;51.006;13.670;2023-04-03T22:14:11;4.50;;;2.67;;
19617;SDS011;9956;51.006;13.670;2023-04-03T22:19:12;3.65;;;2.72;;
19617;SDS011;9956;51.006;13.670;2023-04-03T22:24:13;3.53;;;2.88;;
19617;SDS011;9956;51.006;13.670;2023-04-03T22:29:14;6.65;;;3.42;;
19617;SDS011;9956;51.006;13.670;2023-04-03T22:34:15;4.00;;;3.05;;
19617;SDS011;9956;51.006;13.670;2023-04-03T22:39:16;4.90;;;3.00;;
19617;SDS011;9956;51.006;13.670;2023-04-03T22:44:18;4.13;;;2.80;;
19617;SDS011;9956;51.006;13.670;2023-04-03T22:49:18;4.32;;;2.65;;
19617;SDS011;9956;51.006;13.670;2023-04-03T22:54:19;3.28;;;2.35;;
19617;SDS011;9956;51.006;13.670;2023-04-03T22:59:19;2.78;;;2.58;;
19617;SDS011;9956;51.006;13.670;2023-04-03T23:04:20;4.90;;;2.63;;
19617;SDS011;9956;51.006;13.670;2023-04-03T23:09:20;4.95;;;3.17;;
19617;SDS011;9956;51.006;13.670;2023-04-03T23:14:21;6.15;;;3.25;;
19617;SDS011;9956;51.006;13.670;2023-04-03T23:19:21;3.80;;;2.80;;
19617;SDS011;9956;51.006;13.670;2023-04-03T23:24:22;6.75;;;2.22;;
19617;SDS011;9956;51.006;13.670;2023-04-03T23:29:22;4.32;;;2.70;;
19617;SDS011;9956;51.006;13.670;2023-04-03T23:34:23;3.47;;;2.72;;
19617;SDS011;9956;51.006;13.670;2023-04-03T23:39:23;3.33;;;2.10;;
19617;SDS011;9956;51.006;13.670;2023-04-03T23:44:24;4.95;;;2.60;;
19617;SDS011;9956;51.006;13.670;2023-04-03T23:49:25;4.88;;;2.80;;
19617;SDS011;9956;51.006;13.670;2023-04-03T23:54:26;4.30;;;2.38;;
19617;SDS011;9956;51.006;13.670;2023-04-03T23:59:26;6.53;;;2.63;;
